sensor_id;sensor_type;location;lat;lon;timestamp;temperature;humidity
35894;DHT22;21994;48.204;16.516;2024-02-14T00:00:11;2.10;99.90
35894;DHT22;21994;48.204;16.516;2024-02-14T00:02:41;2.00;99.90
35894;DHT22;21994;48.204;16.516;2024-02-14T00:05:09;1.90;99.90
35894;DHT22;21994;48.204;16.516;2024-02-14T00:07:39;1.70;99.90
35894;DHT22;21994;48.204;16.516;2024-02-14T00:10:05;1.60;99.90
35894;DHT22;21994;48.204;16.516;2024-02-14T00:12:32;1.40;99.90
35894;DHT22;21994;48.204;16.516;2024-02-14T00:14:58;1.30;99.90
35894;DHT22;21994;48.204;16.516;2024-02-14T00:17:24;1.20;99.90
35894;DHT22;21994;48.204;16.516;2024-02-14T00:19:50;1.10;99.90
35894;DHT22;21994;48.204;16.516;2024-02-14T00:22:16;0.90;99.90
35894;DHT22;21994;48.204;16.516;2024-02-14T00:24:42;0.80;99.90
35894;DHT22;21994;48.204;16.516;2024-02-14T00:27:08;0.80;99.90
35894;DHT22;21994;48.204;16.516;2024-02-14T00:29:34;0.70;99.90
35894;DHT22;21994;48.204;16.516;2024-02-14T00:32:00;0.50;99.90
35894;DHT22;21994;48.204;16.516;2024-02-14T00:34:26;0.40;99.90
35894;DHT22;21994;48.204;16.516;2024-02-14T00:36:52;0.40;99.90
35894;DHT22;21994;48.204;16.516;2024-02-14T00:39:18;0.30;99.90
35894;DHT22;21994;48.204;16.516;2024-02-14T00:41:46;0.20;99.90
35894;DHT22;21994;48.204;16.516;2024-02-14T00:44:13;0.20;99.90
35894;DHT22;21994;48.204;16.516;2024-02-14T00:46:42;0.10;99.90
35894;DHT22;21994;48.204;16.516;2024-02-14T00:49:09;0.10;99.90
35894;DHT22;21994;48.204;16.516;2024-02-14T00:51:35;0.00;99.90
35894;DHT22;21994;48.204;16.516;2024-02-14T00:54:03;0.00;99.90
35894;DHT22;21994;48.204;16.516;2024-02-14T00:56:29;0.00;99.90
35894;DHT22;21994;48.204;16.516;2024-02-14T00:58:55;0.00;99.90
35894;DHT22;21994;48.204;16.516;2024-02-14T01:01:22;-0.10;99.90
35894;DHT22;21994;48.204;16.516;2024-02-14T01:03:48;-0.20;99.90
35894;DHT22;21994;48.204;16.516;2024-02-14T01:06:14;-0.30;99.90
35894;DHT22;21994;48.204;16.516;2024-02-14T01:08:41;-0.30;99.90
35894;DHT22;21994;48.204;16.516;2024-02-14T01:11:10;-0.40;99.90
35894;DHT22;21994;48.204;16.516;2024-02-14T01:13:35;-0.40;99.90
35894;DHT22;21994;48.204;16.516;2024-02-14T01:16:04;-0.40;99.90
35894;DHT22;21994;48.204;16.516;2024-02-14T01:18:30;-0.40;99.90
35894;DHT22;21994;48.204;16.516;2024-02-14T01:20:57;-0.50;99.90
35894;DHT22;21994;48.204;16.516;2024-02-14T01:23:24;-0.50;99.90
35894;DHT22;21994;48.204;16.516;2024-02-14T01:25:50;-0.60;99.90
35894;DHT22;21994;48.204;16.516;2024-02-14T01:28:16;-0.60;99.90
35894;DHT22;21994;48.204;16.516;2024-02-14T01:30:42;-0.60;99.90
35894;DHT22;21994;48.204;16.516;2024-02-14T01:33:08;-0.60;99.90
35894;DHT22;21994;48.204;16.516;2024-02-14T01:35:34;-0.70;99.90
35894;DHT22;21994;48.204;16.516;2024-02-14T01:38:00;-0.70;99.90
35894;DHT22;21994;48.204;16.516;2024-02-14T01:40:28;-0.80;99.90
35894;DHT22;21994;48.204;16.516;2024-02-14T01:42:54;-0.80;99.90
35894;DHT22;21994;48.204;16.516;2024-02-14T01:45:21;-0.80;99.90
35894;DHT22;21994;48.204;16.516;2024-02-14T01:47:47;-0.80;99.90
35894;DHT22;21994;48.204;16.516;2024-02-14T01:50:13;-0.80;99.90
35894;DHT22;21994;48.204;16.516;2024-02-14T01:52:39;-0.80;99.90
35894;DHT22;21994;48.204;16.516;2024-02-14T01:55:06;-0.80;99.90
35894;DHT22;21994;48.204;16.516;2024-02-14T01:57:33;-0.80;99.90
35894;DHT22;21994;48.204;16.516;2024-02-14T02:00:00;-0.90;99.90
35894;DHT22;21994;48.204;16.516;2024-02-14T02:02:33;-0.80;99.90
35894;DHT22;21994;48.204;16.516;2024-02-14T02:05:02;-0.90;99.90
35894;DHT22;21994;48.204;16.516;2024-02-14T02:07:28;-0.90;99.90
35894;DHT22;21994;48.204;16.516;2024-02-14T02:09:55;-0.90;99.90
35894;DHT22;21994;48.204;16.516;2024-02-14T02:12:21;-1.00;99.90
35894;DHT22;21994;48.204;16.516;2024-02-14T02:14:47;-1.00;99.90
35894;DHT22;21994;48.204;16.516;2024-02-14T02:17:14;-1.00;99.90
35894;DHT22;21994;48.204;16.516;2024-02-14T02:19:44;-1.00;99.90
35894;DHT22;21994;48.204;16.516;2024-02-14T02:22:09;-1.00;99.90
35894;DHT22;21994;48.204;16.516;2024-02-14T02:24:35;-1.00;99.90
35894;DHT22;21994;48.204;16.516;2024-02-14T02:27:01;-1.10;99.90
35894;DHT22;21994;48.204;16.516;2024-02-14T02:29:28;-1.10;99.90
35894;DHT22;21994;48.204;16.516;2024-02-14T02:31:54;-1.10;99.90
35894;DHT22;21994;48.204;16.516;2024-02-14T02:34:19;-1.10;99.90
35894;DHT22;21994;48.204;16.516;2024-02-14T02:36:45;-1.10;99.90
35894;DHT22;21994;48.204;16.516;2024-02-14T02:39:11;-1.10;99.90
35894;DHT22;21994;48.204;16.516;2024-02-14T02:41:37;-1.10;99.90
35894;DHT22;21994;48.204;16.516;2024-02-14T02:44:03;-1.10;99.90
35894;DHT22;21994;48.204;16.516;2024-02-14T02:46:32;-1.20;99.90
35894;DHT22;21994;48.204;16.516;2024-02-14T02:48:58;-1.20;99.90
35894;DHT22;21994;48.204;16.516;2024-02-14T02:51:26;-1.20;99.90
35894;DHT22;21994;48.204;16.516;2024-02-14T02:53:54;-1.20;99.90
35894;DHT22;21994;48.204;16.516;2024-02-14T02:56:20;-1.30;99.90
35894;DHT22;21994;48.204;16.516;2024-02-14T02:58:47;-1.30;99.90
35894;DHT22;21994;48.204;16.516;2024-02-14T03:01:14;-1.30;99.90
35894;DHT22;21994;48.204;16.516;2024-02-14T03:03:40;-1.30;99.90
35894;DHT22;21994;48.204;16.516;2024-02-14T03:06:06;-1.40;99.90
35894;DHT22;21994;48.204;16.516;2024-02-14T03:08:32;-1.40;99.90
35894;DHT22;21994;48.204;16.516;2024-02-14T03:11:06;-1.40;99.90
35894;DHT22;21994;48.204;16.516;2024-02-14T03:13:32;-1.40;99.90
35894;DHT22;21994;48.204;16.516;2024-02-14T03:15:58;-1.40;99.90
35894;DHT22;21994;48.204;16.516;2024-02-14T03:18:24;-1.40;99.90
35894;DHT22;21994;48.204;16.516;2024-02-14T03:20:50;-1.40;99.90
35894;DHT22;21994;48.204;16.516;2024-02-14T03:23:18;-1.40;99.90
35894;DHT22;21994;48.204;16.516;2024-02-14T03:25:43;-1.40;99.90
35894;DHT22;21994;48.204;16.516;2024-02-14T03:28:09;-1.40;99.90
35894;DHT22;21994;48.204;16.516;2024-02-14T03:30:35;-1.40;99.90
35894;DHT22;21994;48.204;16.516;2024-02-14T03:33:02;-1.30;99.90
35894;DHT22;21994;48.204;16.516;2024-02-14T03:35:28;-1.30;99.90
35894;DHT22;21994;48.204;16.516;2024-02-14T03:37:54;-1.30;99.90
35894;DHT22;21994;48.204;16.516;2024-02-14T03:40:19;-1.30;99.90
35894;DHT22;21994;48.204;16.516;2024-02-14T03:42:49;-1.40;99.90
35894;DHT22;21994;48.204;16.516;2024-02-14T03:45:15;-1.30;99.90
35894;DHT22;21994;48.204;16.516;2024-02-14T03:47:41;-1.40;99.90
35894;DHT22;21994;48.204;16.516;2024-02-14T03:50:07;-1.30;99.90
35894;DHT22;21994;48.204;16.516;2024-02-14T03:52:33;-1.30;99.90
35894;DHT22;21994;48.204;16.516;2024-02-14T03:55:00;-1.30;99.90
35894;DHT22;21994;48.204;16.516;2024-02-14T03:57:26;-1.30;99.90
35894;DHT22;21994;48.204;16.516;2024-02-14T03:59:54;-1.30;99.90
35894;DHT22;21994;48.204;16.516;2024-02-14T04:02:21;-1.30;99.90
35894;DHT22;21994;48.204;16.516;2024-02-14T04:04:48;-1.20;99.90
35894;DHT22;21994;48.204;16.516;2024-02-14T04:07:14;-1.20;99.90
35894;DHT22;21994;48.204;16.516;2024-02-14T04:09:40;-1.00;99.90
35894;DHT22;21994;48.204;16.516;2024-02-14T04:12:06;-1.00;99.90
35894;DHT22;21994;48.204;16.516;2024-02-14T04:14:32;-1.10;99.90
35894;DHT22;21994;48.204;16.516;2024-02-14T04:16:58;-1.00;99.90
35894;DHT22;21994;48.204;16.516;2024-02-14T04:19:23;-0.70;99.90
35894;DHT22;21994;48.204;16.516;2024-02-14T04:21:49;-0.70;99.90
35894;DHT22;21994;48.204;16.516;2024-02-14T04:24:15;-0.70;99.90
35894;DHT22;21994;48.204;16.516;2024-02-14T04:26:41;-0.90;99.90
35894;DHT22;21994;48.204;16.516;2024-02-14T04:29:10;-0.80;99.90
35894;DHT22;21994;48.204;16.516;2024-02-14T04:31:36;-0.90;99.90
35894;DHT22;21994;48.204;16.516;2024-02-14T04:34:02;-1.00;99.90
35894;DHT22;21994;48.204;16.516;2024-02-14T04:36:27;-1.00;99.90
35894;DHT22;21994;48.204;16.516;2024-02-14T04:38:56;-1.00;99.90
35894;DHT22;21994;48.204;16.516;2024-02-14T04:41:22;-1.10;99.90
35894;DHT22;21994;48.204;16.516;2024-02-14T04:43:48;-1.10;99.90
35894;DHT22;21994;48.204;16.516;2024-02-14T04:46:14;-1.10;99.90
35894;DHT22;21994;48.204;16.516;2024-02-14T04:48:40;-1.00;99.90
35894;DHT22;21994;48.204;16.516;2024-02-14T04:51:05;-1.00;99.90
35894;DHT22;21994;48.204;16.516;2024-02-14T04:53:31;-1.00;99.90
35894;DHT22;21994;48.204;16.516;2024-02-14T04:55:57;-0.80;99.90
35894;DHT22;21994;48.204;16.516;2024-02-14T04:58:23;-0.80;99.90
35894;DHT22;21994;48.204;16.516;2024-02-14T05:00:49;-0.90;99.90
35894;DHT22;21994;48.204;16.516;2024-02-14T05:03:15;-1.00;99.90
35894;DHT22;21994;48.204;16.516;2024-02-14T05:05:41;-1.10;99.90
35894;DHT22;21994;48.204;16.516;2024-02-14T05:08:07;-1.10;99.90
35894;DHT22;21994;48.204;16.516;2024-02-14T05:10:33;-1.10;99.90
35894;DHT22;21994;48.204;16.516;2024-02-14T05:12:58;-1.10;99.90
35894;DHT22;21994;48.204;16.516;2024-02-14T05:15:24;-1.20;99.90
35894;DHT22;21994;48.204;16.516;2024-02-14T05:17:51;-1.20;99.90
35894;DHT22;21994;48.204;16.516;2024-02-14T05:20:17;-1.30;99.90
35894;DHT22;21994;48.204;16.516;2024-02-14T05:22:43;-1.30;99.90
35894;DHT22;21994;48.204;16.516;2024-02-14T05:25:09;-1.30;99.90
35894;DHT22;21994;48.204;16.516;2024-02-14T05:27:35;-1.30;99.90
35894;DHT22;21994;48.204;16.516;2024-02-14T05:30:02;-1.30;99.90
35894;DHT22;21994;48.204;16.516;2024-02-14T05:32:32;-1.30;99.90
35894;DHT22;21994;48.204;16.516;2024-02-14T05:34:58;-1.30;99.90
35894;DHT22;21994;48.204;16.516;2024-02-14T05:37:24;-1.30;99.90
35894;DHT22;21994;48.204;16.516;2024-02-14T05:39:53;-1.20;99.90
35894;DHT22;21994;48.204;16.516;2024-02-14T05:42:19;-1.30;99.90
35894;DHT22;21994;48.204;16.516;2024-02-14T05:44:45;-1.20;99.90
35894;DHT22;21994;48.204;16.516;2024-02-14T05:47:11;-1.30;99.90
35894;DHT22;21994;48.204;16.516;2024-02-14T05:49:40;-1.30;99.90
35894;DHT22;21994;48.204;16.516;2024-02-14T05:52:06;-1.30;99.90
35894;DHT22;21994;48.204;16.516;2024-02-14T05:54:33;-1.30;99.90
35894;DHT22;21994;48.204;16.516;2024-02-14T05:56:59;-1.40;99.90
35894;DHT22;21994;48.204;16.516;2024-02-14T05:59:25;-1.40;99.90
35894;DHT22;21994;48.204;16.516;2024-02-14T06:01:50;-1.40;99.90
35894;DHT22;21994;48.204;16.516;2024-02-14T06:04:16;-1.30;99.90
35894;DHT22;21994;48.204;16.516;2024-02-14T06:06:42;-1.30;99.90
35894;DHT22;21994;48.204;16.516;2024-02-14T06:09:08;-1.20;99.90
35894;DHT22;21994;48.204;16.516;2024-02-14T06:11:37;-1.10;99.90
35894;DHT22;21994;48.204;16.516;2024-02-14T06:14:06;-1.10;99.90
35894;DHT22;21994;48.204;16.516;2024-02-14T06:16:33;-1.00;99.90
35894;DHT22;21994;48.204;16.516;2024-02-14T06:18:59;-1.00;99.90
35894;DHT22;21994;48.204;16.516;2024-02-14T06:21:25;-1.00;99.90
35894;DHT22;21994;48.204;16.516;2024-02-14T06:23:51;-1.00;99.90
35894;DHT22;21994;48.204;16.516;2024-02-14T06:26:17;-1.00;99.90
35894;DHT22;21994;48.204;16.516;2024-02-14T06:28:46;-0.90;99.90
35894;DHT22;21994;48.204;16.516;2024-02-14T06:31:12;-0.90;99.90
35894;DHT22;21994;48.204;16.516;2024-02-14T06:33:38;-0.80;99.90
35894;DHT22;21994;48.204;16.516;2024-02-14T06:36:03;-0.80;99.90
35894;DHT22;21994;48.204;16.516;2024-02-14T06:38:31;-0.70;99.90
35894;DHT22;21994;48.204;16.516;2024-02-14T06:40:57;-0.70;99.90
35894;DHT22;21994;48.204;16.516;2024-02-14T06:43:23;-0.60;99.90
35894;DHT22;21994;48.204;16.516;2024-02-14T06:45:48;-0.50;99.90
35894;DHT22;21994;48.204;16.516;2024-02-14T06:48:14;-0.50;99.90
35894;DHT22;21994;48.204;16.516;2024-02-14T06:50:40;-0.50;99.90
35894;DHT22;21994;48.204;16.516;2024-02-14T06:53:06;-0.40;99.90
35894;DHT22;21994;48.204;16.516;2024-02-14T06:55:32;-0.30;99.90
35894;DHT22;21994;48.204;16.516;2024-02-14T06:57:58;-0.20;99.90
35894;DHT22;21994;48.204;16.516;2024-02-14T07:00:24;-0.20;99.90
35894;DHT22;21994;48.204;16.516;2024-02-14T07:02:50;-0.10;99.90
35894;DHT22;21994;48.204;16.516;2024-02-14T07:05:16;0.00;99.90
35894;DHT22;21994;48.204;16.516;2024-02-14T07:07:42;0.10;99.90
35894;DHT22;21994;48.204;16.516;2024-02-14T07:10:07;0.20;99.90
35894;DHT22;21994;48.204;16.516;2024-02-14T07:12:34;0.30;99.90
35894;DHT22;21994;48.204;16.516;2024-02-14T07:15:01;0.40;99.90
35894;DHT22;21994;48.204;16.516;2024-02-14T07:17:30;0.50;99.90
35894;DHT22;21994;48.204;16.516;2024-02-14T07:19:56;0.50;99.90
35894;DHT22;21994;48.204;16.516;2024-02-14T07:22:22;0.60;99.90
35894;DHT22;21994;48.204;16.516;2024-02-14T07:24:47;0.80;99.90
35894;DHT22;21994;48.204;16.516;2024-02-14T07:27:14;0.90;99.90
35894;DHT22;21994;48.204;16.516;2024-02-14T07:29:40;1.20;99.90
35894;DHT22;21994;48.204;16.516;2024-02-14T07:32:06;1.40;99.90
35894;DHT22;21994;48.204;16.516;2024-02-14T07:34:32;1.70;99.90
35894;DHT22;21994;48.204;16.516;2024-02-14T07:36:58;1.80;99.90
35894;DHT22;21994;48.204;16.516;2024-02-14T07:39:23;2.00;99.90
35894;DHT22;21994;48.204;16.516;2024-02-14T07:41:50;2.20;99.90
35894;DHT22;21994;48.204;16.516;2024-02-14T07:44:16;2.30;99.90
35894;DHT22;21994;48.204;16.516;2024-02-14T07:46:42;2.40;99.90
35894;DHT22;21994;48.204;16.516;2024-02-14T07:49:07;2.60;99.90
35894;DHT22;21994;48.204;16.516;2024-02-14T07:51:35;2.70;99.90
35894;DHT22;21994;48.204;16.516;2024-02-14T07:54:03;2.90;99.90
35894;DHT22;21994;48.204;16.516;2024-02-14T07:56:29;3.20;99.90
35894;DHT22;21994;48.204;16.516;2024-02-14T07:58:55;3.30;99.90
35894;DHT22;21994;48.204;16.516;2024-02-14T08:01:21;3.50;99.90
35894;DHT22;21994;48.204;16.516;2024-02-14T08:03:46;3.70;99.90
35894;DHT22;21994;48.204;16.516;2024-02-14T08:06:13;4.00;99.90
35894;DHT22;21994;48.204;16.516;2024-02-14T08:08:39;4.30;99.90
35894;DHT22;21994;48.204;16.516;2024-02-14T08:11:04;4.60;99.90
35894;DHT22;21994;48.204;16.516;2024-02-14T08:13:31;4.90;99.90
35894;DHT22;21994;48.204;16.516;2024-02-14T08:15:57;5.20;99.90
35894;DHT22;21994;48.204;16.516;2024-02-14T08:18:26;5.50;99.90
35894;DHT22;21994;48.204;16.516;2024-02-14T08:20:53;5.80;99.90
35894;DHT22;21994;48.204;16.516;2024-02-14T08:23:18;6.00;99.90
35894;DHT22;21994;48.204;16.516;2024-02-14T08:25:48;6.20;99.90
35894;DHT22;21994;48.204;16.516;2024-02-14T08:28:14;6.30;99.90
35894;DHT22;21994;48.204;16.516;2024-02-14T08:30:40;6.50;99.90
35894;DHT22;21994;48.204;16.516;2024-02-14T08:33:06;6.60;99.90
35894;DHT22;21994;48.204;16.516;2024-02-14T08:35:32;6.70;99.90
35894;DHT22;21994;48.204;16.516;2024-02-14T08:37:59;6.70;99.90
35894;DHT22;21994;48.204;16.516;2024-02-14T08:40:24;6.90;99.90
35894;DHT22;21994;48.204;16.516;2024-02-14T08:42:50;7.10;99.90
35894;DHT22;21994;48.204;16.516;2024-02-14T08:45:16;7.20;99.90
35894;DHT22;21994;48.204;16.516;2024-02-14T08:47:45;7.30;99.90
35894;DHT22;21994;48.204;16.516;2024-02-14T08:50:11;7.40;99.90
35894;DHT22;21994;48.204;16.516;2024-02-14T08:52:37;7.30;99.90
35894;DHT22;21994;48.204;16.516;2024-02-14T08:55:06;7.30;99.90
35894;DHT22;21994;48.204;16.516;2024-02-14T08:57:36;7.40;99.90
35894;DHT22;21994;48.204;16.516;2024-02-14T09:00:02;8.10;99.90
35894;DHT22;21994;48.204;16.516;2024-02-14T09:02:29;9.40;99.90
35894;DHT22;21994;48.204;16.516;2024-02-14T09:04:55;10.50;99.90
35894;DHT22;21994;48.204;16.516;2024-02-14T09:07:21;11.70;97.80
35894;DHT22;21994;48.204;16.516;2024-02-14T09:09:47;12.30;95.90
35894;DHT22;21994;48.204;16.516;2024-02-14T09:12:13;13.10;95.10
35894;DHT22;21994;48.204;16.516;2024-02-14T09:14:38;13.70;93.70
35894;DHT22;21994;48.204;16.516;2024-02-14T09:17:04;13.60;93.50
35894;DHT22;21994;48.204;16.516;2024-02-14T09:19:30;13.60;92.10
35894;DHT22;21994;48.204;16.516;2024-02-14T09:21:56;13.90;91.70
35894;DHT22;21994;48.204;16.516;2024-02-14T09:24:21;14.10;92.40
35894;DHT22;21994;48.204;16.516;2024-02-14T09:26:47;15.00;91.00
35894;DHT22;21994;48.204;16.516;2024-02-14T09:29:13;15.70;90.00
35894;DHT22;21994;48.204;16.516;2024-02-14T09:31:40;16.60;86.90
35894;DHT22;21994;48.204;16.516;2024-02-14T09:34:07;16.60;87.10
35894;DHT22;21994;48.204;16.516;2024-02-14T09:36:37;16.90;85.80
35894;DHT22;21994;48.204;16.516;2024-02-14T09:39:05;17.00;85.40
35894;DHT22;21994;48.204;16.516;2024-02-14T09:41:36;17.10;85.90
35894;DHT22;21994;48.204;16.516;2024-02-14T09:44:05;17.30;83.50
35894;DHT22;21994;48.204;16.516;2024-02-14T09:46:32;18.00;82.20
35894;DHT22;21994;48.204;16.516;2024-02-14T09:49:01;17.70;82.40
35894;DHT22;21994;48.204;16.516;2024-02-14T09:51:29;17.70;83.70
35894;DHT22;21994;48.204;16.516;2024-02-14T09:53:55;18.30;81.60
35894;DHT22;21994;48.204;16.516;2024-02-14T09:56:21;18.50;82.10
35894;DHT22;21994;48.204;16.516;2024-02-14T09:58:50;19.50;79.60
35894;DHT22;21994;48.204;16.516;2024-02-14T10:01:24;19.10;80.90
35894;DHT22;21994;48.204;16.516;2024-02-14T10:03:51;18.90;79.20
35894;DHT22;21994;48.204;16.516;2024-02-14T10:06:17;19.50;78.20
35894;DHT22;21994;48.204;16.516;2024-02-14T10:08:46;19.10;77.70
35894;DHT22;21994;48.204;16.516;2024-02-14T10:11:14;19.10;77.70
35894;DHT22;21994;48.204;16.516;2024-02-14T10:13:41;19.40;77.10
35894;DHT22;21994;48.204;16.516;2024-02-14T10:16:07;18.90;78.00
35894;DHT22;21994;48.204;16.516;2024-02-14T10:18:34;18.10;78.10
35894;DHT22;21994;48.204;16.516;2024-02-14T10:21:00;17.20;79.90
35894;DHT22;21994;48.204;16.516;2024-02-14T10:23:27;16.80;80.00
35894;DHT22;21994;48.204;16.516;2024-02-14T10:25:53;17.10;80.30
35894;DHT22;21994;48.204;16.516;2024-02-14T10:28:21;16.70;80.70
35894;DHT22;21994;48.204;16.516;2024-02-14T10:30:47;16.40;81.00
35894;DHT22;21994;48.204;16.516;2024-02-14T10:33:17;16.60;80.40
35894;DHT22;21994;48.204;16.516;2024-02-14T10:35:44;16.80;80.10
35894;DHT22;21994;48.204;16.516;2024-02-14T10:38:11;17.50;79.00
35894;DHT22;21994;48.204;16.516;2024-02-14T10:40:37;18.10;79.40
35894;DHT22;21994;48.204;16.516;2024-02-14T10:43:08;19.30;75.50
35894;DHT22;21994;48.204;16.516;2024-02-14T10:45:37;19.00;75.90
35894;DHT22;21994;48.204;16.516;2024-02-14T10:48:06;18.40;76.10
35894;DHT22;21994;48.204;16.516;2024-02-14T10:50:38;18.00;77.20
35894;DHT22;21994;48.204;16.516;2024-02-14T10:53:06;18.10;77.90
35894;DHT22;21994;48.204;16.516;2024-02-14T10:55:38;17.80;78.40
35894;DHT22;21994;48.204;16.516;2024-02-14T10:58:06;17.50;78.50
35894;DHT22;21994;48.204;16.516;2024-02-14T11:00:33;16.70;80.50
35894;DHT22;21994;48.204;16.516;2024-02-14T11:02:59;16.80;82.30
35894;DHT22;21994;48.204;16.516;2024-02-14T11:05:26;17.40;80.60
35894;DHT22;21994;48.204;16.516;2024-02-14T11:07:52;17.90;79.60
35894;DHT22;21994;48.204;16.516;2024-02-14T11:10:19;18.60;77.20
35894;DHT22;21994;48.204;16.516;2024-02-14T11:12:46;18.80;74.90
35894;DHT22;21994;48.204;16.516;2024-02-14T11:17:46;19.40;73.60
35894;DHT22;21994;48.204;16.516;2024-02-14T11:20:34;19.60;74.50
35894;DHT22;21994;48.204;16.516;2024-02-14T11:23:04;19.60;74.80
35894;DHT22;21994;48.204;16.516;2024-02-14T11:25:37;19.20;74.20
35894;DHT22;21994;48.204;16.516;2024-02-14T11:28:13;18.60;74.70
35894;DHT22;21994;48.204;16.516;2024-02-14T11:30:42;18.20;75.70
35894;DHT22;21994;48.204;16.516;2024-02-14T11:35:51;16.40;80.10
35894;DHT22;21994;48.204;16.516;2024-02-14T11:38:21;15.90;81.40
35894;DHT22;21994;48.204;16.516;2024-02-14T11:40:49;15.70;82.20
35894;DHT22;21994;48.204;16.516;2024-02-14T11:43:16;15.60;81.40
35894;DHT22;21994;48.204;16.516;2024-02-14T11:45:43;15.60;82.90
35894;DHT22;21994;48.204;16.516;2024-02-14T11:48:11;15.40;82.50
35894;DHT22;21994;48.204;16.516;2024-02-14T11:50:40;15.40;83.00
35894;DHT22;21994;48.204;16.516;2024-02-14T11:53:09;15.10;81.30
35894;DHT22;21994;48.204;16.516;2024-02-14T11:55:37;15.00;84.50
35894;DHT22;21994;48.204;16.516;2024-02-14T11:58:10;15.10;89.20
35894;DHT22;21994;48.204;16.516;2024-02-14T12:00:40;15.30;90.30
35894;DHT22;21994;48.204;16.516;2024-02-14T12:03:06;15.10;87.60
35894;DHT22;21994;48.204;16.516;2024-02-14T12:05:33;14.90;90.00
35894;DHT22;21994;48.204;16.516;2024-02-14T12:08:00;15.20;88.40
35894;DHT22;21994;48.204;16.516;2024-02-14T12:10:26;15.30;89.60
35894;DHT22;21994;48.204;16.516;2024-02-14T12:12:52;15.00;88.30
35894;DHT22;21994;48.204;16.516;2024-02-14T12:15:18;14.70;88.00
35894;DHT22;21994;48.204;16.516;2024-02-14T12:17:44;14.40;89.70
35894;DHT22;21994;48.204;16.516;2024-02-14T12:20:11;14.40;90.40
35894;DHT22;21994;48.204;16.516;2024-02-14T12:22:39;14.50;90.30
35894;DHT22;21994;48.204;16.516;2024-02-14T12:25:09;14.60;90.50
35894;DHT22;21994;48.204;16.516;2024-02-14T12:27:36;14.80;91.50
35894;DHT22;21994;48.204;16.516;2024-02-14T12:30:03;15.10;89.60
35894;DHT22;21994;48.204;16.516;2024-02-14T12:32:30;15.30;87.00
35894;DHT22;21994;48.204;16.516;2024-02-14T12:34:56;15.20;87.20
35894;DHT22;21994;48.204;16.516;2024-02-14T12:37:23;15.30;84.80
35894;DHT22;21994;48.204;16.516;2024-02-14T12:39:48;15.50;85.70
35894;DHT22;21994;48.204;16.516;2024-02-14T12:42:14;15.70;83.60
35894;DHT22;21994;48.204;16.516;2024-02-14T12:44:40;16.10;82.70
35894;DHT22;21994;48.204;16.516;2024-02-14T12:47:06;16.30;80.90
35894;DHT22;21994;48.204;16.516;2024-02-14T12:49:33;16.20;83.30
35894;DHT22;21994;48.204;16.516;2024-02-14T12:51:59;16.30;81.30
35894;DHT22;21994;48.204;16.516;2024-02-14T12:54:25;16.30;81.70
35894;DHT22;21994;48.204;16.516;2024-02-14T12:56:51;16.10;85.10
35894;DHT22;21994;48.204;16.516;2024-02-14T12:59:17;16.10;85.60
35894;DHT22;21994;48.204;16.516;2024-02-14T13:01:44;15.60;84.90
35894;DHT22;21994;48.204;16.516;2024-02-14T13:04:10;15.20;85.10
35894;DHT22;21994;48.204;16.516;2024-02-14T13:06:36;15.00;86.00
35894;DHT22;21994;48.204;16.516;2024-02-14T13:09:03;15.00;83.80
35894;DHT22;21994;48.204;16.516;2024-02-14T13:11:31;14.90;84.50
35894;DHT22;21994;48.204;16.516;2024-02-14T13:13:57;14.90;84.40
35894;DHT22;21994;48.204;16.516;2024-02-14T13:16:23;15.30;83.80
35894;DHT22;21994;48.204;16.516;2024-02-14T13:18:49;15.70;82.00
35894;DHT22;21994;48.204;16.516;2024-02-14T13:21:15;16.10;81.20
35894;DHT22;21994;48.204;16.516;2024-02-14T13:23:42;16.50;78.70
35894;DHT22;21994;48.204;16.516;2024-02-14T13:26:08;16.10;79.10
35894;DHT22;21994;48.204;16.516;2024-02-14T13:28:34;16.80;80.10
35894;DHT22;21994;48.204;16.516;2024-02-14T13:31:00;16.80;81.80
35894;DHT22;21994;48.204;16.516;2024-02-14T13:33:26;16.80;83.60
35894;DHT22;21994;48.204;16.516;2024-02-14T13:35:52;17.00;82.00
35894;DHT22;21994;48.204;16.516;2024-02-14T13:38:17;16.50;80.80
35894;DHT22;21994;48.204;16.516;2024-02-14T13:40:43;16.20;81.90
35894;DHT22;21994;48.204;16.516;2024-02-14T13:43:09;16.10;81.70
35894;DHT22;21994;48.204;16.516;2024-02-14T13:45:43;16.30;82.10
35894;DHT22;21994;48.204;16.516;2024-02-14T13:48:09;16.20;79.80
35894;DHT22;21994;48.204;16.516;2024-02-14T13:50:36;15.90;81.60
35894;DHT22;21994;48.204;16.516;2024-02-14T13:53:03;15.60;81.60
35894;DHT22;21994;48.204;16.516;2024-02-14T13:55:29;15.60;82.70
35894;DHT22;21994;48.204;16.516;2024-02-14T13:57:55;15.50;81.30
35894;DHT22;21994;48.204;16.516;2024-02-14T14:00:21;15.20;82.00
35894;DHT22;21994;48.204;16.516;2024-02-14T14:02:46;14.90;82.10
35894;DHT22;21994;48.204;16.516;2024-02-14T14:05:12;14.60;83.00
35894;DHT22;21994;48.204;16.516;2024-02-14T14:07:39;14.50;83.90
35894;DHT22;21994;48.204;16.516;2024-02-14T14:10:05;14.40;86.10
35894;DHT22;21994;48.204;16.516;2024-02-14T14:12:32;14.30;86.10
35894;DHT22;21994;48.204;16.516;2024-02-14T14:14:58;14.30;85.90
35894;DHT22;21994;48.204;16.516;2024-02-14T14:17:24;14.10;84.20
35894;DHT22;21994;48.204;16.516;2024-02-14T14:19:51;13.90;85.30
35894;DHT22;21994;48.204;16.516;2024-02-14T14:22:17;13.80;85.60
35894;DHT22;21994;48.204;16.516;2024-02-14T14:24:43;13.60;85.50
35894;DHT22;21994;48.204;16.516;2024-02-14T14:27:09;13.40;86.70
35894;DHT22;21994;48.204;16.516;2024-02-14T14:29:48;13.20;86.60
35894;DHT22;21994;48.204;16.516;2024-02-14T14:32:14;13.10;87.80
35894;DHT22;21994;48.204;16.516;2024-02-14T14:34:41;12.90;87.70
35894;DHT22;21994;48.204;16.516;2024-02-14T14:37:07;13.00;87.30
35894;DHT22;21994;48.204;16.516;2024-02-14T14:39:33;12.90;88.50
35894;DHT22;21994;48.204;16.516;2024-02-14T14:41:59;12.90;88.80
35894;DHT22;21994;48.204;16.516;2024-02-14T14:44:25;13.00;88.70
35894;DHT22;21994;48.204;16.516;2024-02-14T14:46:51;13.00;86.70
35894;DHT22;21994;48.204;16.516;2024-02-14T14:49:17;12.90;86.30
35894;DHT22;21994;48.204;16.516;2024-02-14T14:51:43;12.80;86.50
35894;DHT22;21994;48.204;16.516;2024-02-14T14:54:09;12.70;87.20
35894;DHT22;21994;48.204;16.516;2024-02-14T14:56:35;12.60;87.20
35894;DHT22;21994;48.204;16.516;2024-02-14T14:59:01;12.60;87.00
35894;DHT22;21994;48.204;16.516;2024-02-14T15:01:32;12.50;87.60
35894;DHT22;21994;48.204;16.516;2024-02-14T15:04:02;12.40;87.30
35894;DHT22;21994;48.204;16.516;2024-02-14T15:06:28;12.30;87.30
35894;DHT22;21994;48.204;16.516;2024-02-14T15:08:54;12.30;87.90
35894;DHT22;21994;48.204;16.516;2024-02-14T15:11:19;12.30;87.40
35894;DHT22;21994;48.204;16.516;2024-02-14T15:13:50;12.20;88.20
35894;DHT22;21994;48.204;16.516;2024-02-14T15:16:15;12.20;88.80
35894;DHT22;21994;48.204;16.516;2024-02-14T15:18:41;12.30;89.40
35894;DHT22;21994;48.204;16.516;2024-02-14T15:21:09;12.30;89.30